Time;durP1;ratioP1;P1;durP2;ratioP2;P2;SDS_P1;SDS_P2;PMS_P1;PMS_P2;Temp;Humidity;BMP_temperature;BMP_pressure;BME280_temperature;BME280_humidity;BME280_pressure;Samples;Min_cycle;Max_cycle;Signal;HPM_P1;HPM_P2
2020/12/07 00:00:33;;;;;;;3.58;1.90;;;3.10;99.90;;;;;;4973595;28;20106;-80
2020/12/07 00:03:00;;;;;;;3.35;1.55;;;3.00;99.90;;;;;;4988650;28;20051;-82
2020/12/07 00:05:27;;;;;;;3.47;1.48;;;3.20;99.90;;;;;;4985964;28;20055;-82
2020/12/07 00:07:53;;;;;;;3.50;1.60;;;3.00;99.90;;;;;;4980735;28;20032;-82
2020/12/07 00:10:22;;;;;;;3.63;1.50;;;3.10;99.90;;;;;;4978608;28;20043;-82
2020/12/07 00:12:49;;;;;;;3.88;1.50;;;3.10;99.90;;;;;;4978151;28;20067;-81
2020/12/07 00:15:17;;;;;;;3.15;1.60;;;3.10;99.90;;;;;;4978958;28;20047;-81
2020/12/07 00:17:44;;;;;;;3.25;1.67;;;3.00;99.90;;;;;;4980779;28;20075;-81
2020/12/07 00:20:11;;;;;;;3.85;1.42;;;3.00;99.90;;;;;;4979942;28;20055;-82
2020/12/07 00:22:38;;;;;;;4.50;1.55;;;3.10;99.90;;;;;;4981046;28;20031;-82
2020/12/07 00:25:06;;;;;;;2.83;1.33;;;3.20;99.90;;;;;;4982092;28;20031;-80
2020/12/07 00:27:35;;;;;;;3.13;1.80;;;3.10;99.90;;;;;;5000259;28;20053;-81
2020/12/07 00:30:05;;;;;;;2.97;1.27;;;2.90;99.90;;;;;;4991638;28;20043;-82
2020/12/07 06:01:03;;;;;;;2.97;1.17;;;4.10;99.10;;;;;;5772037;23;20411;-80
2020/12/07 06:03:31;;;;;;;2.80;1.15;;;4.10;99.10;;;;;;5017906;28;20050;-81
2020/12/07 06:05:58;;;;;;;5.10;1.40;;;4.10;99.00;;;;;;5022374;28;20050;-82
2020/12/07 06:08:31;;;;;;;3.38;1.30;;;4.00;98.80;;;;;;5032439;28;20049;-82
2020/12/07 06:11:06;;;;;;;3.05;1.42;;;4.00;98.90;;;;;;5016133;28;20045;-82
2020/12/07 06:13:36;;;;;;;2.83;1.15;;;4.00;99.00;;;;;;5033994;28;20034;-82
2020/12/07 06:26:31;;;;;;;4.55;2.00;;;3.80;99.20;;;;;;5654358;22;20045;-82
2020/12/07 06:28:59;;;;;;;3.13;1.50;;;3.70;99.20;;;;;;5051548;28;20049;-81
2020/12/07 06:31:28;;;;;;;3.63;1.33;;;3.80;98.80;;;;;;5048975;28;20109;-81
2020/12/07 06:33:56;;;;;;;4.32;1.95;;;3.70;98.60;;;;;;5050120;28;20050;-81
2020/12/07 06:36:28;;;;;;;3.95;1.48;;;3.70;98.70;;;;;;5049071;28;20049;-82
2020/12/07 06:38:58;;;;;;;3.28;1.50;;;3.60;98.70;;;;;;5050944;28;20061;-82
2020/12/07 06:41:38;;;;;;;3.72;1.67;;;3.80;98.60;;;;;;5046392;28;20064;-82
2020/12/07 06:59:40;;;;;;;3.13;1.52;;;3.20;99.40;;;;;;5294568;23;20041;-81
2020/12/07 07:02:07;;;;;;;3.33;1.48;;;3.30;99.70;;;;;;5050676;28;20034;-80
2020/12/07 07:04:37;;;;;;;3.53;1.63;;;3.40;99.70;;;;;;5053338;28;20061;-81
2020/12/07 07:07:04;;;;;;;3.10;1.60;;;3.30;99.50;;;;;;5057114;28;20184;-82
2020/12/07 07:09:32;;;;;;;3.92;1.50;;;3.40;99.20;;;;;;5041841;28;20068;-84
2020/12/07 07:12:02;;;;;;;3.25;1.60;;;3.50;99.10;;;;;;5026201;28;20050;-82
2020/12/07 07:14:33;;;;;;;3.45;1.52;;;3.30;98.80;;;;;;5057436;28;20076;-82
2020/12/07 07:17:01;;;;;;;3.22;1.50;;;3.40;98.90;;;;;;5060929;28;20037;-82
2020/12/07 07:19:37;;;;;;;3.58;1.23;;;3.40;98.80;;;;;;5061475;28;20030;-84
2020/12/07 07:22:07;;;;;;;2.70;1.40;;;3.20;98.80;;;;;;5060199;28;20041;-82
2020/12/07 07:24:54;;;;;;;2.88;1.35;;;3.30;98.90;;;;;;5060590;28;20038;-82
2020/12/07 07:30:07;;;;;;;4.15;1.50;;;3.20;99.20;;;;;;5060952;28;20056;-82
2020/12/07 07:32:40;;;;;;;6.35;2.05;;;3.20;99.10;;;;;;5060582;28;20053;-81
2020/12/07 07:45:31;;;;;;;3.30;1.60;;;2.90;99.60;;;;;;4980244;28;20069;-81
2020/12/07 08:37:43;;;;;;;4.25;2.17;;;3.70;99.00;;;;;;4837635;26;20042;-82
2020/12/07 08:40:13;;;;;;;4.13;2.33;;;3.70;99.00;;;;;;5019992;28;20051;-84
2020/12/07 08:50:28;;;;;;;5.20;3.10;;;4.00;99.10;;;;;;777453;26;20320;-80
2020/12/07 08:52:57;;;;;;;5.85;3.60;;;4.10;98.90;;;;;;5078903;28;20083;-83
2020/12/07 08:55:24;;;;;;;7.55;3.80;;;3.90;99.70;;;;;;5078561;28;20032;-83
2020/12/07 08:57:51;;;;;;;6.40;3.97;;;4.10;99.90;;;;;;5060972;28;20024;-83
2020/12/07 09:00:18;;;;;;;8.32;4.88;;;3.90;99.90;;;;;;5078498;28;20048;-83
2020/12/07 09:02:45;;;;;;;9.20;5.15;;;3.90;99.90;;;;;;5079262;28;20045;-83
2020/12/07 09:10:27;;;;;;;6.72;4.32;;;4.00;99.90;;;;;;6026086;22;21894;-82
2020/12/07 09:25:53;;;;;;;11.70;5.20;;;4.50;99.30;;;;;;5937613;22;20067;-81
2020/12/07 09:28:24;;;;;;;7.53;4.63;;;4.50;99.20;;;;;;5057091;28;20030;-84
2020/12/07 09:30:51;;;;;;;6.18;3.60;;;4.60;99.00;;;;;;5593389;22;20048;-81
2020/12/07 09:59:13;;;;;;;5.00;2.65;;;4.80;96.50;;;;;;5308484;23;20040;-81
2020/12/07 10:01:40;;;;;;;4.60;2.60;;;4.80;96.60;;;;;;5078708;28;20109;-84
2020/12/07 10:04:09;;;;;;;5.07;2.88;;;5.00;96.70;;;;;;5078044;28;20033;-82
2020/12/07 10:06:36;;;;;;;5.55;2.80;;;5.00;96.50;;;;;;5077482;28;20064;-82
2020/12/07 10:09:03;;;;;;;5.13;2.90;;;5.10;96.10;;;;;;5076074;28;20029;-82
2020/12/07 10:11:30;;;;;;;4.60;2.67;;;5.10;96.00;;;;;;5076190;28;20029;-82
2020/12/07 10:13:57;;;;;;;5.07;2.80;;;4.90;96.20;;;;;;5071429;28;20060;-82
2020/12/07 10:16:24;;;;;;;4.80;2.55;;;4.70;95.90;;;;;;5066584;28;20049;-80
2020/12/07 10:18:54;;;;;;;5.25;3.03;;;4.90;95.80;;;;;;5063499;28;20071;-80
2020/12/07 10:21:25;;;;;;;4.40;2.35;;;4.80;96.60;;;;;;5051318;28;20056;-82
2020/12/07 10:23:52;;;;;;;4.10;2.60;;;5.00;96.10;;;;;;5074671;28;20083;-80
2020/12/07 10:26:24;;;;;;;4.07;2.55;;;5.10;95.70;;;;;;5066565;28;20143;-80
2020/12/07 10:28:52;;;;;;;4.88;2.63;;;5.20;95.90;;;;;;5068710;28;20473;-80
2020/12/07 10:31:20;;;;;;;4.57;2.67;;;5.30;95.80;;;;;;5059675;28;20044;-82
2020/12/07 10:33:51;;;;;;;4.18;2.58;;;5.50;95.50;;;;;;5196806;22;20056;-81
2020/12/07 10:36:19;;;;;;;5.03;2.75;;;5.40;95.50;;;;;;5652446;23;20446;-80
2020/12/07 10:38:59;;;;;;;4.63;2.58;;;5.50;95.10;;;;;;5051218;28;20089;-81
2020/12/07 10:41:28;;;;;;;4.85;2.65;;;5.70;95.30;;;;;;5038732;28;20093;-82
2020/12/07 10:43:56;;;;;;;4.57;2.50;;;5.90;95.20;;;;;;5032430;28;20069;-81
2020/12/07 10:51:39;;;;;;;4.45;2.30;;;6.00;94.00;;;;;;5101504;23;20285;-80
2020/12/07 10:54:07;;;;;;;4.75;2.40;;;6.00;94.20;;;;;;5044016;28;20060;-83
2020/12/07 10:59:11;;;;;;;5.13;2.60;;;6.10;94.50;;;;;;5328259;23;20041;-82
2020/12/07 11:01:39;;;;;;;3.55;2.33;;;6.20;94.60;;;;;;5597654;23;20032;-81
2020/12/07 11:04:10;;;;;;;3.70;2.08;;;6.10;94.50;;;;;;5059909;28;20038;-82
2020/12/07 11:06:47;;;;;;;3.90;2.20;;;6.30;94.20;;;;;;5059289;28;20072;-82
2020/12/07 11:09:23;;;;;;;5.25;2.38;;;6.30;93.70;;;;;;5044007;28;20043;-81
2020/12/07 11:11:50;;;;;;;4.05;2.28;;;6.00;94.10;;;;;;5059644;28;20122;-82
2020/12/07 11:14:18;;;;;;;6.22;2.78;;;6.00;94.10;;;;;;5055029;28;20045;-82
2020/12/07 11:16:46;;;;;;;5.25;2.80;;;5.50;94.80;;;;;;5189190;23;20101;-82
2020/12/07 11:19:15;;;;;;;4.85;3.00;;;5.80;95.30;;;;;;5059685;28;20049;-81
2020/12/07 11:21:45;;;;;;;4.53;2.80;;;5.60;95.10;;;;;;5060360;28;20034;-80
2020/12/07 11:24:12;;;;;;;5.00;2.72;;;5.40;95.00;;;;;;5056061;28;20052;-80
2020/12/07 11:26:39;;;;;;;4.55;2.60;;;5.70;95.20;;;;;;5058417;28;20033;-80
2020/12/07 11:29:08;;;;;;;4.22;2.50;;;5.80;94.90;;;;;;5060283;28;20037;-82
2020/12/07 11:31:47;;;;;;;4.38;2.45;;;5.90;94.50;;;;;;5043378;28;20056;-84
2020/12/07 11:34:19;;;;;;;4.28;2.08;;;5.70;95.10;;;;;;5042677;28;20038;-82
2020/12/07 11:36:52;;;;;;;3.90;2.13;;;5.90;94.50;;;;;;5060387;28;20038;-83
2020/12/07 11:39:38;;;;;;;4.53;2.30;;;5.90;94.50;;;;;;5061016;28;20076;-84
2020/12/07 11:42:16;;;;;;;3.58;2.00;;;5.80;94.50;;;;;;5060823;28;20113;-82
2020/12/07 11:44:43;;;;;;;3.70;2.00;;;5.70;94.80;;;;;;5060172;28;20049;-82
2020/12/07 11:47:18;;;;;;;4.38;2.30;;;5.90;94.40;;;;;;5058972;28;20053;-82
2020/12/07 11:49:48;;;;;;;3.78;2.20;;;5.90;94.20;;;;;;5041765;28;20105;-83
2020/12/07 11:52:16;;;;;;;4.30;2.47;;;6.20;94.20;;;;;;5058035;28;20046;-82
2020/12/07 11:54:43;;;;;;;4.15;2.38;;;6.10;93.80;;;;;;5055003;28;20054;-81
2020/12/07 11:57:10;;;;;;;16.08;7.75;;;6.10;94.00;;;;;;5040681;28;20048;-82
2020/12/07 11:59:38;;;;;;;4.43;2.40;;;6.00;93.40;;;;;;5058915;28;20073;-82
2020/12/07 12:02:05;;;;;;;3.80;2.03;;;6.00;93.30;;;;;;5058890;28;20025;-82
2020/12/07 12:04:33;;;;;;;3.88;1.90;;;5.80;93.40;;;;;;5058666;28;20060;-80
2020/12/07 12:07:00;;;;;;;4.85;2.17;;;5.90;93.70;;;;;;5038369;28;20049;-82
2020/12/07 12:09:29;;;;;;;5.10;2.30;;;6.00;94.40;;;;;;5056393;28;20034;-80
2020/12/07 12:11:56;;;;;;;3.80;2.00;;;6.10;94.10;;;;;;5050721;28;20033;-80
2020/12/07 12:14:22;;;;;;;3.75;1.92;;;6.20;93.30;;;;;;5054107;28;20073;-81
2020/12/07 12:16:56;;;;;;;5.18;2.40;;;6.10;93.30;;;;;;5048855;28;20037;-80
2020/12/07 12:19:24;;;;;;;4.53;2.50;;;5.90;93.30;;;;;;5056807;28;20049;-82
2020/12/07 12:21:51;;;;;;;4.22;2.30;;;5.60;93.60;;;;;;5059711;28;20037;-81
2020/12/07 12:24:18;;;;;;;4.70;2.33;;;6.00;94.20;;;;;;5056227;28;20045;-79
2020/12/07 12:26:46;;;;;;;4.38;2.10;;;6.10;93.90;;;;;;5057156;28;20097;-81
2020/12/07 12:29:13;;;;;;;5.30;2.45;;;6.40;93.20;;;;;;5057730;28;20037;-80
2020/12/07 12:31:43;;;;;;;5.47;2.55;;;6.80;92.80;;;;;;5058973;28;20033;-82
2020/12/07 12:34:10;;;;;;;5.65;2.70;;;7.00;91.10;;;;;;5057837;28;20041;-81
2020/12/07 12:36:36;;;;;;;4.57;2.47;;;6.40;92.10;;;;;;5040992;28;20056;-79
2020/12/07 12:39:03;;;;;;;5.43;2.80;;;6.60;92.20;;;;;;5054799;28;20052;-80
2020/12/07 12:41:30;;;;;;;5.35;2.75;;;6.70;91.20;;;;;;5257991;23;20843;-77
2020/12/07 12:43:58;;;;;;;4.72;2.60;;;7.30;91.10;;;;;;5024751;28;20073;-78
2020/12/07 12:46:25;;;;;;;4.72;2.50;;;7.60;89.60;;;;;;5021776;28;20078;-78
2020/12/07 12:48:51;;;;;;;5.07;2.58;;;8.20;88.90;;;;;;5021576;28;20149;-78
2020/12/07 12:51:18;;;;;;;5.15;2.35;;;8.60;85.50;;;;;;5017672;28;20066;-77
2020/12/07 12:53:44;;;;;;;5.35;2.78;;;9.00;85.80;;;;;;5001247;28;20078;-83
2020/12/07 12:56:12;;;;;;;5.47;2.90;;;9.40;80.70;;;;;;5013771;28;20133;-80
2020/12/07 12:58:39;;;;;;;4.50;2.40;;;9.70;78.70;;;;;;5016953;28;20049;-81
2020/12/07 13:01:07;;;;;;;4.72;2.30;;;9.90;76.40;;;;;;5007624;28;20134;-79
2020/12/07 13:03:34;;;;;;;4.90;2.40;;;9.80;74.50;;;;;;5017776;28;20113;-80
2020/12/07 13:06:01;;;;;;;4.30;2.15;;;9.40;75.50;;;;;;5023294;28;20080;-78
2020/12/07 13:08:28;;;;;;;4.63;2.40;;;9.10;76.00;;;;;;5026633;28;20084;-79
2020/12/07 13:10:54;;;;;;;5.45;2.67;;;9.00;77.80;;;;;;5027525;28;20041;-78
2020/12/07 13:13:21;;;;;;;5.05;2.60;;;8.90;78.30;;;;;;5030103;28;20096;-79
2020/12/07 13:15:55;;;;;;;4.22;2.15;;;8.80;79.70;;;;;;5028821;28;20045;-79
2020/12/07 13:18:23;;;;;;;4.55;2.30;;;8.70;80.90;;;;;;5028617;28;20049;-79
2020/12/07 13:20:56;;;;;;;4.85;2.60;;;8.80;79.10;;;;;;5030421;28;20069;-77
2020/12/07 13:23:28;;;;;;;4.35;2.28;;;8.70;79.40;;;;;;5029721;28;20081;-80
2020/12/07 13:26:01;;;;;;;4.47;2.40;;;8.50;82.00;;;;;;5027953;28;20041;-78
2020/12/07 13:28:28;;;;;;;5.35;2.67;;;8.40;82.00;;;;;;5023267;28;20446;-79
2020/12/07 13:30:55;;;;;;;3.88;2.08;;;8.10;83.00;;;;;;5030933;28;20073;-82
2020/12/07 13:33:23;;;;;;;4.70;2.58;;;8.00;84.90;;;;;;5031645;28;20046;-79
2020/12/07 13:35:49;;;;;;;5.80;2.50;;;7.80;86.20;;;;;;5020378;28;20499;-79
2020/12/07 13:38:16;;;;;;;4.72;2.60;;;7.70;87.20;;;;;;5020192;28;20069;-78
2020/12/07 13:40:43;;;;;;;4.85;2.60;;;7.60;86.40;;;;;;5026791;28;20064;-82
2020/12/07 13:55:07;;;;;;;4.70;2.50;;;6.90;90.30;;;;;;6022324;23;20024;-78
2020/12/07 14:05:40;;;;;;;4.88;2.40;;;6.60;90.90;;;;;;5782386;23;20044;-83
2020/12/07 14:08:07;;;;;;;4.25;2.40;;;6.60;91.00;;;;;;5058749;28;20112;-82
2020/12/07 14:10:38;;;;;;;5.40;2.75;;;6.70;91.10;;;;;;5346252;23;20040;-81
2020/12/07 14:13:05;;;;;;;5.60;2.60;;;6.40;91.20;;;;;;5058776;28;20037;-83
2020/12/07 14:15:32;;;;;;;5.28;2.38;;;6.50;91.40;;;;;;5058407;28;20052;-83
2020/12/07 14:45:44;;;;;;;5.05;2.80;;;6.00;92.40;;;;;;3977099;22;20315;-82
2020/12/07 16:03:22;;;;;;;6.63;3.58;;;5.30;93.40;;;;;;5594745;23;20041;-82
2020/12/07 16:14:05;;;;;;;7.10;4.18;;;5.20;93.50;;;;;;5142822;23;20068;-83
2020/12/07 16:16:32;;;;;;;7.00;4.00;;;5.40;93.70;;;;;;5057479;28;20049;-80
2020/12/07 16:18:59;;;;;;;7.03;3.97;;;5.40;93.70;;;;;;5055319;28;20060;-81
2020/12/07 16:21:26;;;;;;;5.60;3.50;;;5.30;93.90;;;;;;5050254;28;20081;-80
2020/12/07 16:23:53;;;;;;;6.82;3.75;;;5.30;94.20;;;;;;5044981;28;20408;-82
2020/12/07 16:26:19;;;;;;;6.32;3.50;;;5.20;94.00;;;;;;5043235;28;20067;-82
2020/12/07 16:28:46;;;;;;;7.38;4.40;;;5.20;94.30;;;;;;5039153;28;20053;-80
2020/12/07 16:31:12;;;;;;;7.25;4.10;;;5.20;94.10;;;;;;5042946;28;20068;-80
2020/12/07 16:33:39;;;;;;;8.52;4.53;;;5.30;94.10;;;;;;5042464;28;20132;-80
2020/12/07 16:36:07;;;;;;;8.52;4.18;;;5.20;94.20;;;;;;5045645;28;20050;-81
2020/12/07 16:38:34;;;;;;;6.85;4.25;;;5.30;94.20;;;;;;5043955;28;20587;-81
2020/12/07 16:41:01;;;;;;;7.65;4.63;;;5.30;94.20;;;;;;5041751;28;20105;-81
2020/12/07 16:43:27;;;;;;;8.43;5.25;;;5.20;94.20;;;;;;5043443;28;20076;-83
2020/12/07 16:45:54;;;;;;;9.25;6.30;;;5.20;94.40;;;;;;5042920;28;20105;-82
2020/12/07 16:48:20;;;;;;;24.17;18.88;;;5.20;94.50;;;;;;5044106;28;20449;-82
2020/12/07 16:50:47;;;;;;;12.43;9.18;;;5.20;94.50;;;;;;5048956;28;20053;-79
2020/12/07 16:53:14;;;;;;;33.00;29.27;;;5.20;94.50;;;;;;5051565;28;20046;-82
2020/12/07 16:55:41;;;;;;;19.13;16.30;;;5.20;94.60;;;;;;5051165;28;20073;-80
2020/12/07 16:58:07;;;;;;;10.05;7.28;;;5.20;94.70;;;;;;5039541;28;20140;-80
2020/12/07 17:00:34;;;;;;;8.88;5.45;;;5.10;94.40;;;;;;5035520;28;20140;-81
2020/12/07 17:03:01;;;;;;;8.68;5.13;;;5.10;94.50;;;;;;5029233;28;20073;-80
2020/12/07 17:05:29;;;;;;;8.75;5.72;;;5.10;94.50;;;;;;5038212;28;20060;-79
2020/12/07 17:07:56;;;;;;;9.65;5.70;;;5.10;94.30;;;;;;5038725;28;20056;-80
2020/12/07 17:10:24;;;;;;;10.30;5.45;;;5.10;94.20;;;;;;5045299;28;20068;-80
2020/12/07 17:12:51;;;;;;;9.18;5.95;;;5.20;94.30;;;;;;5039839;28;20092;-79
2020/12/07 17:15:17;;;;;;;10.50;6.30;;;5.20;94.30;;;;;;5041093;28;20083;-79
2020/12/07 17:17:44;;;;;;;9.25;6.00;;;5.20;94.40;;;;;;5043711;28;20068;-81
2020/12/07 17:20:10;;;;;;;10.90;6.35;;;5.30;94.10;;;;;;5044527;28;20124;-80
2020/12/07 17:22:37;;;;;;;9.05;5.82;;;5.20;94.20;;;;;;5049143;28;20041;-83
2020/12/07 17:25:04;;;;;;;9.15;5.72;;;5.20;94.10;;;;;;5038339;28;20128;-82
2020/12/07 17:27:31;;;;;;;11.70;6.75;;;5.20;93.80;;;;;;5036676;28;20073;-83
2020/12/07 17:30:00;;;;;;;10.63;6.50;;;5.30;94.00;;;;;;5055107;28;20033;-82
2020/12/07 17:37:36;;;;;;;10.32;6.05;;;5.20;93.80;;;;;;4993361;28;20101;-82
2020/12/07 17:40:04;;;;;;;9.50;5.65;;;5.20;93.70;;;;;;4989434;28;20050;-81
2020/12/07 17:42:31;;;;;;;9.45;6.05;;;5.30;93.60;;;;;;4992174;28;20043;-82
2020/12/07 17:44:59;;;;;;;8.20;5.07;;;5.40;93.40;;;;;;4988364;28;20055;-82
2020/12/07 17:47:25;;;;;;;8.88;5.45;;;5.40;93.40;;;;;;4991107;28;20141;-81
2020/12/07 17:49:54;;;;;;;9.45;6.07;;;5.20;93.30;;;;;;4973838;28;20053;-81
2020/12/07 17:52:21;;;;;;;9.15;5.90;;;5.30;93.40;;;;;;4987954;28;20511;-82
2020/12/07 17:54:49;;;;;;;7.97;5.20;;;5.40;93.20;;;;;;4985802;28;20109;-82
2020/12/07 17:57:19;;;;;;;9.00;5.20;;;5.20;93.30;;;;;;4986270;28;20459;-80
2020/12/07 17:59:47;;;;;;;7.50;4.97;;;5.30;93.00;;;;;;4990026;28;20176;-82
2020/12/07 18:02:17;;;;;;;8.40;5.38;;;5.30;93.00;;;;;;4994292;28;20058;-83
2020/12/07 18:04:44;;;;;;;9.57;5.40;;;5.30;93.10;;;;;;4995303;28;20054;-82
2020/12/07 18:07:12;;;;;;;10.45;5.97;;;5.40;93.30;;;;;;4989696;28;20077;-82
2020/12/07 18:09:39;;;;;;;12.23;7.18;;;5.20;93.10;;;;;;4991464;28;20051;-81
2020/12/07 18:12:07;;;;;;;10.82;6.32;;;5.30;93.10;;;;;;4994505;28;20055;-81
2020/12/07 18:14:35;;;;;;;9.40;6.00;;;5.10;93.30;;;;;;4992218;28;20082;-82
2020/12/07 18:17:02;;;;;;;9.82;6.07;;;5.10;93.20;;;;;;4996251;28;20031;-82
2020/12/07 18:22:01;;;;;;;9.70;6.03;;;5.10;93.20;;;;;;5004011;28;20419;-82
2020/12/07 18:24:28;;;;;;;8.45;5.32;;;5.20;93.40;;;;;;4995154;28;20137;-82
2020/12/07 18:26:55;;;;;;;8.88;5.20;;;5.10;93.30;;;;;;4990330;28;20061;-81
2020/12/07 18:29:22;;;;;;;7.68;4.88;;;4.90;93.30;;;;;;5010388;28;20057;-81
2020/12/07 18:31:49;;;;;;;8.82;5.22;;;4.90;93.40;;;;;;5004548;28;20054;-81
2020/12/07 18:34:17;;;;;;;9.00;5.70;;;4.90;93.50;;;;;;4994723;28;20070;-81
2020/12/07 18:36:45;;;;;;;8.07;5.45;;;4.80;93.60;;;;;;5004202;28;20047;-80
2020/12/07 18:39:12;;;;;;;8.27;5.22;;;4.90;93.50;;;;;;5003888;28;20086;-80
2020/12/07 18:41:39;;;;;;;8.45;5.60;;;4.90;93.20;;;;;;5008294;28;20077;-82
2020/12/07 18:44:06;;;;;;;7.28;4.57;;;5.00;93.50;;;;;;5007816;28;20486;-81
2020/12/07 18:46:33;;;;;;;7.25;4.53;;;4.90;93.40;;;;;;5013133;28;20076;-82
2020/12/07 18:49:00;;;;;;;6.97;4.70;;;4.90;93.40;;;;;;5010075;28;20054;-82
2020/12/07 18:51:28;;;;;;;7.60;4.50;;;4.90;93.30;;;;;;5008584;28;20082;-80
2020/12/07 18:53:54;;;;;;;8.32;4.88;;;5.00;93.40;;;;;;5013847;28;20069;-81
2020/12/07 18:56:24;;;;;;;8.65;4.90;;;4.90;93.40;;;;;;5440495;22;20060;-82
2020/12/07 18:58:52;;;;;;;7.00;4.60;;;4.90;93.50;;;;;;5062115;28;20055;-83
2020/12/07 19:01:19;;;;;;;8.35;4.70;;;5.20;93.30;;;;;;5063788;28;20045;-87
2020/12/07 19:03:46;;;;;;;7.35;4.25;;;5.00;93.50;;;;;;5054577;28;20508;-78
2020/12/07 19:06:14;;;;;;;7.90;4.78;;;5.00;93.50;;;;;;5057220;28;20532;-79
2020/12/07 19:08:42;;;;;;;7.28;4.75;;;5.00;93.30;;;;;;5169120;22;20075;-80
2020/12/07 19:11:10;;;;;;;8.38;5.25;;;5.00;93.50;;;;;;5027887;28;20050;-81
2020/12/07 19:13:39;;;;;;;8.07;5.18;;;4.90;93.40;;;;;;5013777;28;20137;-79
2020/12/07 19:16:06;;;;;;;8.57;5.78;;;4.90;93.80;;;;;;5023944;28;20041;-80
2020/12/07 19:18:35;;;;;;;8.25;5.38;;;4.90;93.70;;;;;;5015777;28;20246;-82
2020/12/07 19:21:02;;;;;;;9.30;5.65;;;4.90;93.90;;;;;;4985629;28;20503;-82
2020/12/07 19:23:28;;;;;;;8.23;5.43;;;4.90;94.20;;;;;;5033337;28;20057;-82
2020/12/07 19:25:56;;;;;;;8.85;5.43;;;4.90;94.10;;;;;;5033906;28;20089;-82
2020/12/07 19:28:24;;;;;;;9.00;6.00;;;5.00;93.80;;;;;;5040553;28;20041;-83
2020/12/07 21:22:09;;;;;;;8.18;5.00;;;4.20;96.20;;;;;;5657338;23;20109;-82
2020/12/07 21:24:40;;;;;;;7.57;4.80;;;4.40;96.40;;;;;;5039137;28;20054;-83
2020/12/07 21:27:06;;;;;;;8.02;4.57;;;4.30;96.30;;;;;;5036249;28;20538;-81
2020/12/07 21:29:34;;;;;;;6.80;4.43;;;4.30;96.30;;;;;;5038983;28;20041;-83
2020/12/07 21:32:00;;;;;;;8.68;5.18;;;4.40;96.20;;;;;;5023035;28;20050;-80
2020/12/07 21:47:27;;;;;;;7.35;4.03;;;3.90;96.70;;;;;;5757409;23;20036;-82
2020/12/07 21:49:54;;;;;;;7.97;4.45;;;3.90;97.10;;;;;;5058903;28;20056;-83
2020/12/07 21:54:56;;;;;;;9.43;6.28;;;3.90;97.00;;;;;;5162020;23;20052;-83
2020/12/07 21:57:23;;;;;;;10.25;6.35;;;3.90;97.00;;;;;;5287101;23;20045;-81
2020/12/07 22:10:15;;;;;;;12.07;6.55;;;4.30;96.40;;;;;;5659893;23;20033;-83
2020/12/07 22:12:44;;;;;;;10.00;6.00;;;4.40;96.30;;;;;;5042469;28;20044;-83
2020/12/07 22:15:11;;;;;;;9.15;5.85;;;4.40;96.30;;;;;;5041219;28;20076;-82
2020/12/07 22:17:38;;;;;;;11.13;6.95;;;4.50;96.30;;;;;;5055328;28;20054;-80
2020/12/07 22:20:06;;;;;;;12.05;7.05;;;4.30;96.40;;;;;;5056020;28;20029;-81
2020/12/07 22:22:33;;;;;;;10.68;6.88;;;4.40;96.20;;;;;;5056357;28;20053;-81
2020/12/07 22:24:59;;;;;;;11.13;7.07;;;4.40;96.10;;;;;;5022173;28;20057;-81
2020/12/07 22:27:27;;;;;;;12.30;7.70;;;4.20;96.10;;;;;;5056003;28;20168;-81
2020/12/07 22:29:54;;;;;;;11.98;7.28;;;4.30;96.20;;;;;;5056642;28;20026;-82
2020/12/07 22:32:22;;;;;;;12.32;7.65;;;4.40;96.20;;;;;;5042453;28;20077;-82
2020/12/07 22:34:49;;;;;;;13.68;8.10;;;4.40;96.20;;;;;;5059607;28;20053;-82
2020/12/07 22:37:16;;;;;;;12.15;7.75;;;4.40;96.10;;;;;;5040791;28;20110;-82
2020/12/07 22:39:44;;;;;;;12.38;7.82;;;4.50;96.00;;;;;;5023794;28;20049;-82
2020/12/07 22:42:12;;;;;;;15.35;8.55;;;4.50;96.10;;;;;;5054435;28;20064;-82
2020/12/07 22:44:40;;;;;;;15.68;8.80;;;4.50;96.00;;;;;;5052470;28;20407;-81
2020/12/07 22:47:07;;;;;;;12.65;7.13;;;4.50;95.80;;;;;;5053455;28;20053;-82
2020/12/07 22:49:35;;;;;;;13.77;7.75;;;4.40;96.10;;;;;;5054311;28;20056;-82
2020/12/07 22:52:01;;;;;;;14.55;8.57;;;4.40;96.20;;;;;;5016266;28;20041;-82
2020/12/07 22:54:29;;;;;;;24.75;12.15;;;4.50;96.00;;;;;;5053248;28;20066;-82
2020/12/07 22:56:56;;;;;;;22.25;11.95;;;4.50;95.90;;;;;;5037060;28;20037;-81
2020/12/07 22:59:23;;;;;;;44.72;21.27;;;4.50;95.60;;;;;;5055706;28;20056;-82
2020/12/07 23:01:50;;;;;;;53.55;26.20;;;4.50;95.70;;;;;;5040466;28;20096;-82
2020/12/07 23:04:17;;;;;;;48.92;21.58;;;4.60;95.90;;;;;;5059134;28;20057;-82
2020/12/07 23:06:43;;;;;;;23.38;12.65;;;4.50;95.60;;;;;;5059306;28;20041;-83
2020/12/07 23:09:10;;;;;;;15.77;8.55;;;4.60;95.50;;;;;;5044914;28;20042;-83
